Time;durP1;ratioP1;P1;durP2;ratioP2;P2;SDS_P1;SDS_P2;PMS_P1;PMS_P2;Temp;Humidity;BMP_temperature;BMP_pressure;BME280_temperature;BME280_humidity;BME280_pressure;Samples;Min_cycle;Max_cycle;Signal;HPM_P1;HPM_P2
2024/01/16 00:00:34;;;;;;;36.75;33.10;;;8.60;84.80;;;;;;5062748;28;20072;-65
2024/01/16 00:03:00;;;;;;;38.65;34.60;;;8.50;88.70;;;;;;5062488;28;20049;-66
2024/01/16 00:05:25;;;;;;;40.38;35.55;;;8.60;92.10;;;;;;5036692;28;20144;-66
2024/01/16 00:07:51;;;;;;;42.28;35.35;;;8.40;95.40;;;;;;5037889;28;20084;-65
2024/01/16 00:10:16;;;;;;;40.10;34.88;;;8.60;95.10;;;;;;5045188;28;20048;-65
2024/01/16 00:12:42;;;;;;;40.97;36.58;;;8.70;88.90;;;;;;5045772;28;20514;-65
2024/01/16 00:15:09;;;;;;;40.55;36.58;;;8.70;85.40;;;;;;5047717;28;20033;-66
2024/01/16 00:17:35;;;;;;;40.20;36.28;;;8.80;77.10;;;;;;5045286;28;20041;-65
2024/01/16 00:20:01;;;;;;;40.42;36.15;;;8.80;71.90;;;;;;5046943;28;20047;-66
2024/01/16 00:22:27;;;;;;;44.13;36.03;;;8.60;67.20;;;;;;5045676;28;20063;-65
2024/01/16 00:24:53;;;;;;;40.85;36.78;;;8.70;59.90;;;;;;5045352;28;20465;-65
2024/01/16 00:27:18;;;;;;;46.28;34.03;;;8.80;46.40;;;;;;5044609;28;20045;-66
2024/01/16 00:29:44;;;;;;;35.55;31.33;;;8.60;29.80;;;;;;5046745;28;20055;-65
2024/01/16 00:32:09;;;;;;;32.08;29.17;;;8.60;9.30;;;;;;5047160;28;20051;-65
2024/01/16 00:34:35;;;;;;;31.77;28.67;;;8.70;1.00;;;;;;5046635;28;20044;-65
2024/01/16 00:37:00;;;;;;;37.88;28.42;;;8.70;1.00;;;;;;5046689;28;20044;-66
2024/01/16 00:39:26;;;;;;;32.45;29.17;;;8.70;1.00;;;;;;5044964;28;20049;-65
2024/01/16 00:41:51;;;;;;;32.63;29.27;;;8.60;1.00;;;;;;5046880;28;20056;-65
2024/01/16 00:44:17;;;;;;;30.77;27.77;;;8.60;1.00;;;;;;5045427;28;20124;-65
2024/01/16 00:46:43;;;;;;;30.63;27.83;;;8.50;1.00;;;;;;5045012;28;20517;-65
2024/01/16 00:49:09;;;;;;;29.05;25.00;;;8.60;1.00;;;;;;5045036;28;20059;-66
2024/01/16 00:51:35;;;;;;;26.98;24.58;;;8.60;1.00;;;;;;5045014;28;20040;-66
2024/01/16 00:54:00;;;;;;;25.35;23.17;;;8.70;1.00;;;;;;5046176;28;20040;-66
2024/01/16 00:56:27;;;;;;;24.85;22.75;;;8.80;1.00;;;;;;5046480;28;20064;-66
2024/01/16 00:58:53;;;;;;;25.20;23.13;;;8.90;1.00;;;;;;5045308;28;20128;-66
2024/01/16 01:01:20;;;;;;;27.67;23.80;;;8.90;1.00;;;;;;5045102;28;20449;-65
2024/01/16 01:03:45;;;;;;;25.08;22.63;;;8.80;1.00;;;;;;5044641;28;20197;-66
2024/01/16 01:06:11;;;;;;;25.02;22.80;;;8.80;1.00;;;;;;5030041;28;20160;-66
2024/01/16 01:08:37;;;;;;;25.15;22.85;;;8.90;1.00;;;;;;5041785;28;20407;-66
2024/01/16 01:11:03;;;;;;;25.95;23.02;;;8.90;1.00;;;;;;5044543;28;20041;-66
2024/01/16 01:13:28;;;;;;;26.65;23.85;;;9.00;1.00;;;;;;5045156;28;20051;-66
2024/01/16 01:15:54;;;;;;;27.33;24.75;;;9.00;1.00;;;;;;5045973;28;20033;-66
2024/01/16 01:18:19;;;;;;;27.05;24.55;;;8.80;1.00;;;;;;5045990;28;20057;-65
2024/01/16 01:20:45;;;;;;;25.85;23.65;;;8.70;1.00;;;;;;5044102;28;20041;-65
2024/01/16 01:23:11;;;;;;;28.75;26.00;;;8.70;1.00;;;;;;5044999;28;20036;-66
2024/01/16 01:25:36;;;;;;;28.02;25.02;;;8.60;1.00;;;;;;5043597;28;20569;-67
2024/01/16 01:28:02;;;;;;;34.70;27.00;;;8.40;1.00;;;;;;5043840;28;20040;-65
2024/01/16 01:30:27;;;;;;;29.02;26.52;;;8.30;1.00;;;;;;5043854;28;20045;-66
2024/01/16 01:32:53;;;;;;;28.90;25.08;;;8.30;1.00;;;;;;5043874;28;20029;-65
2024/01/16 01:35:21;;;;;;;26.60;24.20;;;8.40;1.00;;;;;;5044135;28;20041;-66
2024/01/16 01:37:47;;;;;;;27.20;24.42;;;8.30;1.00;;;;;;5046238;28;20037;-66
2024/01/16 01:40:14;;;;;;;28.98;25.73;;;8.30;1.00;;;;;;5044671;28;20071;-66
2024/01/16 01:42:41;;;;;;;28.10;25.20;;;8.40;1.00;;;;;;5044161;28;20033;-65
2024/01/16 01:45:08;;;;;;;27.40;24.80;;;8.50;1.00;;;;;;5045901;28;20402;-65
2024/01/16 01:47:34;;;;;;;27.15;24.02;;;8.30;1.00;;;;;;5045066;28;20462;-65
2024/01/16 01:50:00;;;;;;;23.92;21.75;;;8.40;1.00;;;;;;5044125;28;20052;-65
2024/01/16 01:52:26;;;;;;;25.13;22.80;;;8.50;1.00;;;;;;5043930;28;20045;-65
2024/01/16 01:54:52;;;;;;;23.90;21.45;;;8.50;1.00;;;;;;5043861;28;20128;-66
2024/01/16 01:57:18;;;;;;;31.90;23.13;;;8.40;1.00;;;;;;5044032;28;20372;-65
2024/01/16 01:59:43;;;;;;;23.42;21.30;;;8.40;1.00;;;;;;5045407;28;20490;-66
2024/01/16 02:02:11;;;;;;;24.55;21.92;;;8.50;1.00;;;;;;5038371;28;20522;-67
2024/01/16 02:04:38;;;;;;;27.38;23.48;;;8.50;1.00;;;;;;5026944;28;20419;-66
2024/01/16 02:07:04;;;;;;;25.73;23.50;;;8.50;1.00;;;;;;5044041;28;20492;-66
2024/01/16 02:09:30;;;;;;;27.50;25.10;;;8.40;1.00;;;;;;5045876;28;20040;-66
2024/01/16 02:11:55;;;;;;;26.00;23.80;;;8.40;1.00;;;;;;5050644;28;20041;-65
2024/01/16 02:14:21;;;;;;;25.17;22.88;;;8.40;1.00;;;;;;5052423;28;20041;-65
2024/01/16 02:16:46;;;;;;;27.05;24.60;;;8.40;1.00;;;;;;5052349;28;20542;-67
2024/01/16 02:19:12;;;;;;;34.10;26.63;;;8.30;1.00;;;;;;5052061;28;20053;-66
2024/01/16 02:21:49;;;;;;;33.42;30.13;;;8.30;1.00;;;;;;5050959;28;20483;-67
2024/01/16 02:24:17;;;;;;;34.58;31.40;;;8.30;1.00;;;;;;5050298;28;20102;-66
2024/01/16 02:26:43;;;;;;;30.52;27.83;;;8.40;1.00;;;;;;5054838;28;20491;-66
2024/01/16 02:29:09;;;;;;;31.52;28.70;;;8.30;1.00;;;;;;5051790;28;20048;-66
2024/01/16 02:31:34;;;;;;;33.80;29.92;;;8.30;1.00;;;;;;5051650;28;20041;-65
2024/01/16 02:34:01;;;;;;;33.83;30.30;;;8.30;1.00;;;;;;5051798;28;20049;-66
2024/01/16 02:36:27;;;;;;;34.05;30.35;;;8.10;1.00;;;;;;5051021;28;20135;-65
2024/01/16 02:38:53;;;;;;;32.63;29.38;;;8.50;1.00;;;;;;5050356;28;20386;-65
2024/01/16 02:41:18;;;;;;;34.92;28.95;;;8.30;1.00;;;;;;5047252;28;20442;-65
2024/01/16 02:43:44;;;;;;;42.03;37.92;;;8.40;1.00;;;;;;5050452;28;20045;-66
2024/01/16 02:46:10;;;;;;;38.20;34.30;;;8.40;1.00;;;;;;5050984;28;20056;-66
2024/01/16 02:48:37;;;;;;;47.33;42.50;;;8.10;1.00;;;;;;5050869;28;20041;-65
2024/01/16 02:51:03;;;;;;;39.88;34.67;;;8.10;1.00;;;;;;5051976;28;20041;-66
2024/01/16 02:53:29;;;;;;;35.53;32.13;;;8.10;1.00;;;;;;5067361;28;20051;-66
2024/01/16 02:55:55;;;;;;;51.58;46.72;;;8.20;1.00;;;;;;5038338;28;20079;-65
2024/01/16 02:58:21;;;;;;;46.60;41.78;;;8.20;1.00;;;;;;5042702;28;20151;-66
2024/01/16 03:00:47;;;;;;;38.42;34.85;;;8.30;1.00;;;;;;5045945;28;20064;-65
2024/01/16 03:03:14;;;;;;;38.03;33.13;;;8.30;1.00;;;;;;5030257;28;20064;-66
2024/01/16 03:05:40;;;;;;;35.67;31.92;;;8.40;1.00;;;;;;5032576;28;20049;-66
2024/01/16 03:08:06;;;;;;;41.65;37.63;;;8.50;1.00;;;;;;5044053;28;20037;-65
2024/01/16 03:10:32;;;;;;;44.75;39.78;;;8.50;1.00;;;;;;5049907;28;20048;-66
2024/01/16 03:12:57;;;;;;;46.15;32.33;;;8.50;1.00;;;;;;5051359;28;20487;-66
2024/01/16 03:15:23;;;;;;;35.90;29.27;;;8.40;1.00;;;;;;5051453;28;20033;-66
2024/01/16 03:17:49;;;;;;;30.45;27.27;;;8.50;1.00;;;;;;5049961;28;20052;-66
2024/01/16 03:20:15;;;;;;;33.85;30.13;;;8.60;1.00;;;;;;5048182;28;20108;-66
2024/01/16 03:22:41;;;;;;;32.95;29.88;;;8.60;1.00;;;;;;5045596;28;20064;-66
2024/01/16 03:25:08;;;;;;;28.63;26.02;;;8.60;1.00;;;;;;5047080;28;20033;-65
2024/01/16 03:27:34;;;;;;;28.92;25.85;;;8.50;1.00;;;;;;5047000;28;20074;-66
2024/01/16 03:30:01;;;;;;;27.00;24.70;;;8.60;1.00;;;;;;5043759;28;20041;-66
2024/01/16 03:32:27;;;;;;;28.20;25.63;;;8.60;1.00;;;;;;5061676;28;20080;-67
2024/01/16 03:34:52;;;;;;;27.17;24.73;;;8.70;1.00;;;;;;5046716;28;20096;-66
2024/01/16 03:37:18;;;;;;;24.38;22.48;;;8.70;1.00;;;;;;5046428;28;20040;-66
2024/01/16 03:39:44;;;;;;;27.17;24.77;;;8.80;1.00;;;;;;5048232;28;20037;-66
2024/01/16 03:42:12;;;;;;;28.10;25.27;;;8.70;1.00;;;;;;5046300;28;20084;-66
2024/01/16 03:44:40;;;;;;;28.23;25.35;;;8.80;1.00;;;;;;5045875;28;20115;-65
2024/01/16 03:47:06;;;;;;;29.40;26.25;;;8.60;1.00;;;;;;5047893;28;20045;-66
2024/01/16 03:49:31;;;;;;;30.02;26.17;;;8.60;1.00;;;;;;5046711;28;20118;-66
2024/01/16 03:51:57;;;;;;;30.80;27.83;;;8.50;1.00;;;;;;5046365;28;20045;-66
2024/01/16 03:54:22;;;;;;;33.72;31.17;;;8.60;1.00;;;;;;5046424;28;20041;-65
2024/01/16 03:56:48;;;;;;;30.77;28.10;;;8.70;1.00;;;;;;5046261;28;20123;-66
2024/01/16 03:59:13;;;;;;;32.50;29.15;;;8.50;1.00;;;;;;5046050;28;20396;-66
2024/01/16 04:01:39;;;;;;;162.05;38.92;;;8.30;1.00;;;;;;5047087;28;20852;-65
2024/01/16 04:04:07;;;;;;;40.45;35.97;;;8.10;1.00;;;;;;5045586;28;20079;-65
2024/01/16 04:06:33;;;;;;;40.90;36.63;;;8.00;1.00;;;;;;5045666;28;20495;-65
2024/01/16 04:08:59;;;;;;;44.00;39.65;;;8.10;1.00;;;;;;5046154;28;20103;-65
2024/01/16 04:11:24;;;;;;;39.05;34.95;;;7.90;1.00;;;;;;5047567;28;20055;-65
2024/01/16 04:13:50;;;;;;;39.35;35.45;;;7.90;1.00;;;;;;5045132;28;20429;-65
2024/01/16 04:16:15;;;;;;;38.70;34.42;;;8.10;1.00;;;;;;5046666;28;20050;-67
2024/01/16 04:18:43;;;;;;;38.45;34.60;;;8.20;1.00;;;;;;5045606;28;20041;-65
2024/01/16 04:21:09;;;;;;;37.38;33.80;;;8.20;1.00;;;;;;5047287;28;20139;-67
2024/01/16 04:23:34;;;;;;;35.63;32.00;;;8.40;1.00;;;;;;5045942;28;20124;-66
2024/01/16 04:26:00;;;;;;;38.28;34.30;;;8.50;1.00;;;;;;5047660;28;20041;-66
2024/01/16 04:28:25;;;;;;;35.05;31.77;;;8.70;1.00;;;;;;5045825;28;20037;-66
2024/01/16 04:30:51;;;;;;;34.78;31.63;;;8.70;1.00;;;;;;5041218;28;20073;-65
2024/01/16 04:33:17;;;;;;;34.78;30.42;;;8.80;1.00;;;;;;5043587;28;20057;-66
2024/01/16 04:35:42;;;;;;;34.08;30.58;;;8.80;1.00;;;;;;5045448;28;20491;-65
2024/01/16 04:38:08;;;;;;;43.70;29.20;;;8.90;1.00;;;;;;5046703;28;20051;-65
2024/01/16 04:40:33;;;;;;;30.55;27.40;;;8.90;1.00;;;;;;5045308;28;20536;-65
2024/01/16 04:42:59;;;;;;;31.77;28.80;;;8.90;1.00;;;;;;5045128;28;20502;-65
2024/01/16 04:45:25;;;;;;;28.52;25.88;;;9.00;1.00;;;;;;5046691;28;20045;-65
2024/01/16 04:47:50;;;;;;;31.83;26.95;;;8.90;1.00;;;;;;5045056;28;20447;-65
2024/01/16 04:50:16;;;;;;;46.90;30.27;;;8.90;1.00;;;;;;5045317;28;20041;-65
2024/01/16 04:52:43;;;;;;;32.78;29.52;;;8.90;1.00;;;;;;5044850;28;20087;-66
2024/01/16 04:55:08;;;;;;;38.03;28.60;;;8.80;1.00;;;;;;5029010;28;20048;-66
2024/01/16 04:57:34;;;;;;;31.13;27.77;;;8.70;1.00;;;;;;5045689;28;20052;-65
2024/01/16 05:00:00;;;;;;;29.23;26.73;;;8.70;1.00;;;;;;5044289;28;20144;-67
2024/01/16 05:02:25;;;;;;;29.33;26.13;;;8.70;1.00;;;;;;5045092;28;20138;-66
2024/01/16 05:04:51;;;;;;;29.40;26.58;;;8.70;1.00;;;;;;5046775;28;20040;-66
2024/01/16 05:07:23;;;;;;;36.35;27.10;;;8.50;1.00;;;;;;5045415;28;20049;-65
2024/01/16 05:09:49;;;;;;;32.45;29.30;;;8.50;1.00;;;;;;5046063;28;20088;-65
2024/01/16 05:12:14;;;;;;;34.38;31.38;;;8.60;1.00;;;;;;5046284;28;20076;-66
2024/01/16 05:14:40;;;;;;;36.38;32.40;;;8.50;1.00;;;;;;5044595;28;20600;-65
2024/01/16 05:17:06;;;;;;;34.30;31.00;;;8.50;1.00;;;;;;5044154;28;20090;-65
2024/01/16 05:19:32;;;;;;;34.08;30.85;;;8.30;1.00;;;;;;5045946;28;20134;-66
2024/01/16 05:21:57;;;;;;;32.80;29.30;;;8.50;1.00;;;;;;5046220;28;20045;-65
2024/01/16 05:24:23;;;;;;;31.38;26.20;;;8.40;1.00;;;;;;5046170;28;20383;-65
2024/01/16 05:26:48;;;;;;;29.05;25.92;;;8.40;1.00;;;;;;5044485;28;20768;-65
2024/01/16 05:29:14;;;;;;;32.70;27.98;;;8.60;1.00;;;;;;5044446;28;20144;-66
2024/01/16 05:31:41;;;;;;;32.83;28.80;;;8.50;1.00;;;;;;5043640;28;20041;-65
2024/01/16 05:34:06;;;;;;;31.42;28.15;;;8.70;1.00;;;;;;5044046;28;20422;-67
2024/01/16 05:36:32;;;;;;;30.55;27.45;;;8.70;1.00;;;;;;5045733;28;20045;-65
2024/01/16 05:38:58;;;;;;;31.92;29.02;;;8.70;1.00;;;;;;5044922;28;20049;-67
2024/01/16 05:41:23;;;;;;;31.60;28.80;;;8.90;1.00;;;;;;5044370;28;20067;-65
2024/01/16 05:43:49;;;;;;;37.45;27.55;;;8.70;1.00;;;;;;5027335;28;20049;-65
2024/01/16 05:46:14;;;;;;;31.38;28.17;;;8.60;1.00;;;;;;5044336;28;20060;-65
2024/01/16 05:48:40;;;;;;;34.17;28.67;;;8.50;1.00;;;;;;5044231;28;20032;-65
2024/01/16 05:51:05;;;;;;;41.75;30.60;;;8.40;1.00;;;;;;5046074;28;20045;-65
2024/01/16 05:53:31;;;;;;;34.15;30.75;;;8.50;1.00;;;;;;5045158;28;20044;-65
2024/01/16 05:55:57;;;;;;;44.65;33.42;;;8.40;1.00;;;;;;5045650;28;20040;-65
2024/01/16 05:58:22;;;;;;;37.95;34.10;;;8.50;1.00;;;;;;5044726;28;20041;-65
2024/01/16 06:00:48;;;;;;;38.65;34.03;;;8.50;1.00;;;;;;5044652;28;20049;-65
2024/01/16 06:03:13;;;;;;;38.00;33.53;;;8.70;1.00;;;;;;5044253;28;20044;-66
2024/01/16 06:05:39;;;;;;;48.83;36.53;;;8.60;1.00;;;;;;5044942;28;20037;-65
2024/01/16 06:08:05;;;;;;;42.22;33.63;;;8.70;1.00;;;;;;5044306;28;20032;-65
2024/01/16 06:10:31;;;;;;;38.95;32.10;;;8.60;1.00;;;;;;5044183;28;20431;-65
2024/01/16 06:12:56;;;;;;;43.15;33.88;;;8.70;1.00;;;;;;5046041;28;20048;-65
2024/01/16 06:15:23;;;;;;;39.33;35.17;;;8.70;1.00;;;;;;5043313;28;20044;-66
2024/01/16 06:17:48;;;;;;;49.05;35.30;;;8.50;1.00;;;;;;5044131;28;20830;-66
2024/01/16 06:20:14;;;;;;;46.90;36.90;;;8.70;1.00;;;;;;5038958;28;20037;-66
2024/01/16 06:22:40;;;;;;;42.88;37.15;;;8.70;1.00;;;;;;5043459;28;20044;-65
2024/01/16 06:25:06;;;;;;;50.22;36.88;;;9.40;1.00;;;;;;5060993;28;20391;-66
2024/01/16 06:27:32;;;;;;;45.50;38.08;;;8.50;1.00;;;;;;5044820;28;20041;-66
2024/01/16 06:29:58;;;;;;;47.67;36.92;;;8.40;1.00;;;;;;5045421;28;20056;-65
2024/01/16 06:32:24;;;;;;;47.80;36.55;;;8.60;1.00;;;;;;5044212;28;20044;-66
2024/01/16 06:34:49;;;;;;;44.70;37.58;;;8.40;1.00;;;;;;5042902;28;20037;-65
2024/01/16 06:37:15;;;;;;;41.70;35.47;;;8.50;1.00;;;;;;5043671;28;20175;-66
2024/01/16 06:39:40;;;;;;;48.13;35.67;;;8.50;1.00;;;;;;5045025;28;20048;-65
2024/01/16 06:42:06;;;;;;;38.90;34.50;;;8.40;1.00;;;;;;5045343;28;20499;-66
2024/01/16 06:44:32;;;;;;;40.08;34.40;;;8.40;1.00;;;;;;5043683;28;20129;-65
2024/01/16 06:46:57;;;;;;;36.65;32.70;;;8.50;1.00;;;;;;5042387;28;20044;-65
2024/01/16 06:49:23;;;;;;;34.13;30.42;;;8.50;1.00;;;;;;5041163;28;20045;-65
2024/01/16 06:51:48;;;;;;;32.67;29.23;;;8.40;1.00;;;;;;5035165;28;20513;-65
2024/01/16 06:54:14;;;;;;;42.25;30.85;;;8.40;1.00;;;;;;5042203;28;20052;-66
2024/01/16 06:56:39;;;;;;;40.53;29.77;;;8.40;1.00;;;;;;5047749;28;20053;-67
2024/01/16 06:59:05;;;;;;;41.60;31.17;;;8.50;1.00;;;;;;5045603;28;20179;-65
2024/01/16 07:01:31;;;;;;;39.47;35.35;;;8.50;1.00;;;;;;5044480;28;20490;-66
2024/01/16 07:03:56;;;;;;;45.78;34.60;;;8.40;1.00;;;;;;5042263;28;20511;-66
2024/01/16 07:06:22;;;;;;;46.92;34.78;;;8.40;1.00;;;;;;5043014;28;20085;-67
2024/01/16 07:08:47;;;;;;;41.33;33.83;;;8.50;1.00;;;;;;5044808;28;20064;-66
2024/01/16 07:11:13;;;;;;;44.72;35.10;;;8.30;1.00;;;;;;5045648;28;20040;-65
2024/01/16 07:13:40;;;;;;;41.13;35.63;;;8.30;1.00;;;;;;5033810;28;20041;-66
2024/01/16 07:16:10;;;;;;;39.83;35.85;;;8.20;1.00;;;;;;5035849;28;20399;-66
2024/01/16 07:18:38;;;;;;;43.05;38.33;;;8.30;1.00;;;;;;5040758;28;20132;-66
2024/01/16 07:21:04;;;;;;;47.35;41.38;;;8.20;1.00;;;;;;5041885;28;20060;-66
2024/01/16 07:23:30;;;;;;;48.40;41.33;;;8.00;1.00;;;;;;5042391;28;20431;-67
2024/01/16 07:25:55;;;;;;;46.38;41.58;;;7.90;1.00;;;;;;5043716;28;20041;-67
2024/01/16 07:28:22;;;;;;;46.33;41.22;;;7.90;1.00;;;;;;5037367;28;20078;-66
2024/01/16 07:30:47;;;;;;;50.92;43.30;;;8.00;1.90;;;;;;5040277;28;20068;-67
2024/01/16 07:33:13;;;;;;;46.47;39.97;;;8.10;6.60;;;;;;5042737;28;20045;-67
2024/01/16 07:35:41;;;;;;;48.65;40.83;;;8.00;17.00;;;;;;5040340;28;20380;-67
2024/01/16 07:38:07;;;;;;;46.38;41.42;;;8.10;21.60;;;;;;5035114;28;20037;-67
2024/01/16 07:40:32;;;;;;;56.17;42.97;;;8.40;25.10;;;;;;5043281;28;20037;-67
2024/01/16 07:42:58;;;;;;;46.03;41.03;;;8.20;28.00;;;;;;5045325;28;20044;-67
2024/01/16 07:45:24;;;;;;;51.00;45.83;;;8.30;32.10;;;;;;5044135;28;20537;-67
2024/01/16 07:47:50;;;;;;;51.53;45.95;;;8.40;37.90;;;;;;5043161;28;20450;-66
2024/01/16 07:50:15;;;;;;;52.20;45.03;;;8.30;44.80;;;;;;5043285;28;20451;-67
2024/01/16 07:52:41;;;;;;;52.05;45.78;;;8.40;54.20;;;;;;5042661;28;20048;-67
2024/01/16 07:55:07;;;;;;;54.10;43.05;;;8.30;70.30;;;;;;5044989;28;20482;-67
2024/01/16 07:57:32;;;;;;;53.28;42.72;;;8.50;74.00;;;;;;5044077;28;20048;-67
2024/01/16 07:59:58;;;;;;;50.83;45.22;;;8.20;86.90;;;;;;5043157;28;20061;-68
2024/01/16 08:02:31;;;;;;;60.92;44.65;;;8.20;90.60;;;;;;5038042;28;20045;-68
2024/01/16 08:04:57;;;;;;;51.22;45.67;;;8.20;91.50;;;;;;5041237;28;20045;-68
2024/01/16 08:07:22;;;;;;;55.30;42.90;;;8.10;92.30;;;;;;5040933;28;20049;-68
2024/01/16 08:09:48;;;;;;;52.88;43.22;;;7.90;90.40;;;;;;5041207;28;20043;-67
2024/01/16 08:12:13;;;;;;;52.72;44.00;;;7.80;68.00;;;;;;5040513;28;20041;-67
2024/01/16 08:14:39;;;;;;;45.08;40.45;;;7.30;52.00;;;;;;5040953;28;20033;-67
2024/01/16 08:17:05;;;;;;;57.60;45.75;;;6.70;33.00;;;;;;5038536;28;20041;-67
2024/01/16 08:19:30;;;;;;;56.45;46.83;;;6.70;37.80;;;;;;5043239;28;20056;-67
2024/01/16 08:21:56;;;;;;;52.83;44.40;;;6.70;45.70;;;;;;5041010;28;20579;-67
2024/01/16 08:24:22;;;;;;;60.63;51.03;;;6.80;54.40;;;;;;5038601;28;20041;-67
2024/01/16 08:26:48;;;;;;;60.17;53.55;;;7.20;73.10;;;;;;5048609;28;20083;-67
2024/01/16 08:29:14;;;;;;;60.38;50.67;;;7.40;96.60;;;;;;5039901;28;20072;-67
2024/01/16 08:31:40;;;;;;;61.47;52.85;;;7.70;97.40;;;;;;5039613;28;20059;-68
2024/01/16 08:34:06;;;;;;;56.15;50.33;;;9.20;99.90;;;;;;5041338;28;20037;-67
2024/01/16 08:36:32;;;;;;;43.15;38.95;;;8.20;99.90;;;;;;5042241;28;20115;-67
2024/01/16 08:38:57;;;;;;;46.50;42.22;;;8.30;99.90;;;;;;5036802;28;20589;-67
2024/01/16 08:41:23;;;;;;;37.90;34.10;;;8.10;99.90;;;;;;5043218;28;20087;-68
2024/01/16 08:43:49;;;;;;;36.95;33.10;;;7.80;99.90;;;;;;5042074;28;20044;-66
2024/01/16 08:46:15;;;;;;;41.60;35.65;;;7.70;99.90;;;;;;5031991;28;20123;-67
2024/01/16 08:48:41;;;;;;;39.42;35.20;;;7.50;99.90;;;;;;5040363;28;20047;-67
2024/01/16 08:51:11;;;;;;;48.58;40.22;;;7.30;99.90;;;;;;5041468;28;20086;-67
2024/01/16 08:53:37;;;;;;;47.33;42.13;;;7.50;99.90;;;;;;5050302;28;20063;-67
2024/01/16 08:56:04;;;;;;;45.60;40.85;;;7.40;99.90;;;;;;5040700;28;20048;-67
2024/01/16 08:58:30;;;;;;;48.70;41.88;;;7.60;99.90;;;;;;5040518;28;20048;-67
2024/01/16 09:00:55;;;;;;;47.70;42.35;;;7.70;99.90;;;;;;5041069;28;20407;-67
2024/01/16 09:03:21;;;;;;;49.05;43.65;;;7.40;99.90;;;;;;5041385;28;20060;-66
2024/01/16 09:05:47;;;;;;;50.65;45.20;;;7.40;99.90;;;;;;5043025;28;20544;-67
2024/01/16 09:08:12;;;;;;;46.67;42.13;;;7.60;99.90;;;;;;5023875;28;20649;-67
2024/01/16 09:10:38;;;;;;;47.30;42.83;;;7.50;1.00;;;;;;5041579;28;20077;-67
2024/01/16 09:13:03;;;;;;;51.67;43.25;;;7.40;1.00;;;;;;5042517;28;20045;-67
2024/01/16 09:15:29;;;;;;;49.55;44.58;;;7.50;1.00;;;;;;5041239;28;20605;-66
2024/01/16 09:17:54;;;;;;;48.10;43.20;;;7.70;1.00;;;;;;5037904;28;20577;-66
2024/01/16 09:20:20;;;;;;;48.40;39.85;;;7.80;1.00;;;;;;5038543;28;20048;-67
2024/01/16 09:22:45;;;;;;;95.68;42.75;;;8.70;1.00;;;;;;5041001;28;20399;-67
2024/01/16 09:25:11;;;;;;;44.83;40.15;;;8.10;1.00;;;;;;5040311;28;20055;-67
2024/01/16 09:27:36;;;;;;;49.58;41.28;;;8.00;1.00;;;;;;5023791;28;20147;-67
2024/01/16 09:30:04;;;;;;;46.38;41.28;;;8.10;1.00;;;;;;5041892;28;20041;-67
2024/01/16 09:32:30;;;;;;;47.22;42.17;;;7.80;1.00;;;;;;5041770;28;20041;-67
2024/01/16 09:34:58;;;;;;;49.10;44.05;;;7.80;1.00;;;;;;5040804;28;20512;-67
2024/01/16 09:37:23;;;;;;;56.42;42.58;;;7.90;1.00;;;;;;5039992;28;20477;-66
2024/01/16 09:39:50;;;;;;;47.42;42.53;;;8.10;1.00;;;;;;5039202;28;20048;-66
2024/01/16 09:42:16;;;;;;;50.85;44.00;;;8.10;1.00;;;;;;5041465;28;20537;-67
2024/01/16 09:44:42;;;;;;;50.90;44.92;;;7.80;1.00;;;;;;5040707;28;20851;-67
2024/01/16 09:47:11;;;;;;;54.00;46.22;;;8.00;1.00;;;;;;5041027;28;20122;-67
2024/01/16 09:49:37;;;;;;;62.60;45.05;;;8.20;1.00;;;;;;5038348;28;20067;-67
2024/01/16 09:52:03;;;;;;;50.40;43.35;;;8.10;1.00;;;;;;5039444;28;20037;-67
2024/01/16 09:54:29;;;;;;;57.92;46.90;;;8.20;1.00;;;;;;5040517;28;20037;-67
2024/01/16 09:56:58;;;;;;;51.10;45.08;;;8.40;1.00;;;;;;5037542;28;20438;-68
2024/01/16 09:59:24;;;;;;;54.42;46.03;;;8.20;1.00;;;;;;5040596;28;20045;-67
2024/01/16 10:01:54;;;;;;;63.10;45.08;;;8.30;1.00;;;;;;5037977;28;20105;-66
2024/01/16 10:04:19;;;;;;;58.72;45.67;;;8.50;1.00;;;;;;5041295;28;20052;-67
2024/01/16 10:06:46;;;;;;;54.15;47.92;;;8.20;1.00;;;;;;5042021;28;20044;-67
2024/01/16 10:09:12;;;;;;;56.65;47.33;;;8.50;1.00;;;;;;5042233;28;20067;-67
2024/01/16 10:11:38;;;;;;;62.65;47.88;;;8.20;1.00;;;;;;5025944;28;20040;-68
2024/01/16 10:14:04;;;;;;;58.30;45.95;;;8.50;1.00;;;;;;5041324;28;20037;-67
2024/01/16 10:16:58;;;;;;;60.75;48.15;;;8.30;1.00;;;;;;5038296;28;20087;-67
2024/01/16 10:19:25;;;;;;;56.10;45.30;;;8.20;1.00;;;;;;5039094;28;20118;-67
2024/01/16 10:21:51;;;;;;;60.03;47.25;;;8.30;1.00;;;;;;5041275;28;20041;-66
2024/01/16 10:24:17;;;;;;;63.08;44.72;;;8.30;1.00;;;;;;5041008;28;20455;-66
2024/01/16 10:26:43;;;;;;;49.08;43.13;;;8.00;1.00;;;;;;5039090;28;20137;-67
2024/01/16 10:29:09;;;;;;;49.58;41.15;;;7.80;1.00;;;;;;5043799;28;20037;-66
2024/01/16 10:31:34;;;;;;;50.17;43.58;;;7.40;1.00;;;;;;5042257;28;20090;-68
2024/01/16 10:34:00;;;;;;;48.53;42.97;;;7.20;1.00;;;;;;5043246;28;20037;-67
2024/01/16 10:36:26;;;;;;;47.70;39.75;;;7.20;99.90;;;;;;5044806;28;20507;-68
2024/01/16 10:38:57;;;;;;;63.78;44.75;;;7.30;99.90;;;;;;5027838;28;20567;-67
2024/01/16 10:41:27;;;;;;;64.20;47.80;;;7.40;1.00;;;;;;5054109;28;20076;-68
2024/01/16 10:44:08;;;;;;;61.20;47.25;;;8.00;1.00;;;;;;5044797;28;20055;-67
2024/01/16 10:46:35;;;;;;;50.05;43.53;;;8.10;1.00;;;;;;5044639;28;20049;-68
2024/01/16 10:49:03;;;;;;;53.00;44.95;;;8.20;1.00;;;;;;5034304;28;20057;-67
2024/01/16 10:51:29;;;;;;;56.67;43.03;;;7.80;1.00;;;;;;5038232;28;20044;-67
2024/01/16 10:54:00;;;;;;;52.33;46.28;;;7.90;99.90;;;;;;5048439;28;20048;-67
2024/01/16 10:56:29;;;;;;;50.45;42.67;;;7.80;1.00;;;;;;5027934;28;20045;-68
2024/01/16 10:59:07;;;;;;;48.33;43.05;;;8.00;1.00;;;;;;5024462;28;20045;-67
2024/01/16 11:01:33;;;;;;;59.95;44.53;;;8.20;1.00;;;;;;5042575;28;20088;-68
2024/01/16 11:04:01;;;;;;;55.13;45.40;;;8.20;99.90;;;;;;5044739;28;20098;-68
2024/01/16 11:06:28;;;;;;;49.53;44.83;;;8.10;99.90;;;;;;5042075;28;20859;-68
2024/01/16 11:08:56;;;;;;;52.00;46.85;;;8.10;99.90;;;;;;5038957;28;20045;-68
2024/01/16 11:11:22;;;;;;;59.35;43.22;;;8.30;99.90;;;;;;5041800;28;20049;-68
2024/01/16 11:13:49;;;;;;;59.78;50.47;;;8.20;99.90;;;;;;5044300;28;20633;-67
2024/01/16 11:16:16;;;;;;;53.42;47.83;;;8.30;99.90;;;;;;5041349;28;20044;-68
2024/01/16 11:18:41;;;;;;;57.03;46.65;;;8.40;99.90;;;;;;5025433;28;20094;-68
2024/01/16 11:21:16;;;;;;;50.97;45.53;;;8.70;99.90;;;;;;5040088;28;20585;-67
2024/01/16 11:23:43;;;;;;;52.85;43.88;;;8.60;99.90;;;;;;5041063;28;20513;-68
2024/01/16 11:26:28;;;;;;;53.33;47.50;;;8.70;99.90;;;;;;5042180;28;20048;-68
2024/01/16 11:28:56;;;;;;;51.35;46.13;;;8.80;99.90;;;;;;5038434;28;20127;-68
2024/01/16 11:31:29;;;;;;;54.78;48.92;;;8.90;99.90;;;;;;5052091;28;20088;-68
2024/01/16 11:33:55;;;;;;;52.53;47.00;;;8.90;99.90;;;;;;5042972;28;20419;-68
2024/01/16 11:36:48;;;;;;;49.90;44.78;;;8.60;99.90;;;;;;5042442;28;20051;-67
2024/01/16 11:39:19;;;;;;;52.20;45.47;;;8.90;99.90;;;;;;5040052;28;20084;-68
2024/01/16 11:41:54;;;;;;;50.05;44.88;;;8.80;99.90;;;;;;5040509;28;20120;-68
2024/01/16 11:44:40;;;;;;;46.08;41.47;;;8.90;99.90;;;;;;5042509;28;20036;-68
2024/01/16 11:47:06;;;;;;;45.97;41.23;;;9.00;99.90;;;;;;5035847;28;20056;-68
2024/01/16 11:49:32;;;;;;;46.63;42.03;;;9.00;99.90;;;;;;5041377;28;20097;-68
2024/01/16 11:51:59;;;;;;;49.28;42.15;;;9.30;99.90;;;;;;5043659;28;20350;-67
2024/01/16 11:54:24;;;;;;;48.63;40.70;;;9.10;99.90;;;;;;5024634;28;20075;-68
2024/01/16 11:57:20;;;;;;;47.25;42.53;;;9.80;99.90;;;;;;5040547;28;20546;-68
2024/01/16 12:00:00;;;;;;;49.75;44.65;;;8.80;99.90;;;;;;5038618;28;20057;-68
2024/01/16 12:02:44;;;;;;;45.58;40.83;;;8.80;99.90;;;;;;5042237;28;20033;-67
2024/01/16 12:05:12;;;;;;;49.80;44.40;;;8.80;99.90;;;;;;5039051;28;20057;-68
2024/01/16 12:07:55;;;;;;;54.45;44.83;;;8.80;99.90;;;;;;5040999;28;20045;-67
2024/01/16 12:10:22;;;;;;;51.92;44.85;;;8.80;99.90;;;;;;5036880;28;20045;-68
2024/01/16 12:12:49;;;;;;;50.60;45.55;;;9.10;99.90;;;;;;5042326;28;20115;-68
2024/01/16 12:15:19;;;;;;;49.67;44.78;;;9.20;99.90;;;;;;5041983;28;20043;-68
2024/01/16 12:17:58;;;;;;;52.95;44.97;;;9.40;99.90;;;;;;5040659;28;20080;-65
2024/01/16 12:20:33;;;;;;;49.88;43.65;;;9.30;99.90;;;;;;5024866;28;20068;-69
2024/01/16 12:22:59;;;;;;;47.13;40.63;;;9.50;99.90;;;;;;5038832;28;20114;-70
2024/01/16 12:25:27;;;;;;;45.63;40.70;;;9.40;99.90;;;;;;5039955;28;20048;-67
2024/01/16 12:27:57;;;;;;;49.15;41.10;;;9.50;99.90;;;;;;5037827;28;20041;-69
2024/01/16 12:30:49;;;;;;;48.80;40.65;;;9.50;99.90;;;;;;5042807;28;20502;-67
2024/01/16 12:33:15;;;;;;;49.33;39.97;;;9.60;99.90;;;;;;5042024;28;20055;-66
2024/01/16 12:35:42;;;;;;;45.63;39.55;;;9.40;99.90;;;;;;5041407;28;20068;-65
2024/01/16 12:38:12;;;;;;;46.97;41.92;;;9.50;99.90;;;;;;5054845;28;20057;-66
2024/01/16 12:40:51;;;;;;;46.20;40.42;;;9.20;99.90;;;;;;5039872;28;20041;-67